createdAt,value
2022-10-05T00:01:35.188Z,8.50
2022-10-05T00:04:09.064Z,8.50
2022-10-05T00:06:36.126Z,8.30
2022-10-05T00:09:06.411Z,8.30
2022-10-05T00:11:33.414Z,8.20
2022-10-05T00:14:00.406Z,8.20
2022-10-05T00:16:28.531Z,8.20
2022-10-05T00:18:55.582Z,8.20
2022-10-05T00:21:23.586Z,8.10
2022-10-05T00:23:50.932Z,8.10
2022-10-05T00:26:22.112Z,8.20
2022-10-05T00:28:49.218Z,8.30
2022-10-05T00:31:20.147Z,8.30
2022-10-05T00:33:47.534Z,8.20
2022-10-05T00:36:14.646Z,8.20
2022-10-05T00:38:41.730Z,8.20
2022-10-05T00:41:13.793Z,8.10
2022-10-05T00:43:49.442Z,8.20
2022-10-05T00:46:16.573Z,8.10
2022-10-05T00:48:48.792Z,8.10
2022-10-05T00:51:26.181Z,8.10
2022-10-05T00:53:53.210Z,8.20
2022-10-05T00:56:36.606Z,8.10
2022-10-05T00:59:08.737Z,8.20
2022-10-05T01:01:35.755Z,8.20
2022-10-05T01:04:08.591Z,8.20
2022-10-05T01:06:41.750Z,8.30
2022-10-05T01:09:09.484Z,8.40
2022-10-05T01:11:58.780Z,8.40
2022-10-05T01:14:38.712Z,8.40
2022-10-05T01:17:07.525Z,8.40
2022-10-05T01:19:49.561Z,8.40
2022-10-05T01:22:19.607Z,8.40
2022-10-05T01:25:05.563Z,8.40
2022-10-05T01:27:32.567Z,8.30
2022-10-05T01:30:03.099Z,8.30
2022-10-05T01:32:31.935Z,8.30
2022-10-05T01:35:13.502Z,8.30
2022-10-05T01:37:40.505Z,8.30
2022-10-05T01:40:09.995Z,8.30
2022-10-05T01:42:55.674Z,8.40
2022-10-05T01:45:34.896Z,8.30
2022-10-05T01:48:09.542Z,8.40
2022-10-05T01:50:45.701Z,8.40
2022-10-05T01:53:15.882Z,8.30
2022-10-05T01:55:45.372Z,8.30
2022-10-05T01:58:21.081Z,8.30
2022-10-05T02:00:48.114Z,8.30
2022-10-05T02:03:17.431Z,8.30
2022-10-05T02:05:48.436Z,8.30
2022-10-05T02:08:22.334Z,8.30
2022-10-05T02:10:53.705Z,8.30
2022-10-05T02:13:21.882Z,8.30
2022-10-05T02:15:58.866Z,8.40
2022-10-05T02:18:31.903Z,8.40
2022-10-05T02:21:04.089Z,8.50
2022-10-05T02:23:32.866Z,8.50
2022-10-05T02:25:59.866Z,8.50
2022-10-05T02:28:29.498Z,8.50
2022-10-05T02:30:59.040Z,8.50
2022-10-05T02:33:29.939Z,8.50
2022-10-05T02:36:01.399Z,8.50
2022-10-05T02:38:44.166Z,8.50
2022-10-05T02:41:17.199Z,8.50
2022-10-05T02:43:53.591Z,8.50
2022-10-05T02:46:50.978Z,8.60
2022-10-05T02:49:48.091Z,8.60
2022-10-05T02:52:50.824Z,8.60
2022-10-05T02:55:19.622Z,8.60
2022-10-05T02:58:05.566Z,8.70
2022-10-05T03:00:39.555Z,8.60
2022-10-05T03:03:16.058Z,8.60
2022-10-05T03:05:45.784Z,8.60
2022-10-05T03:08:34.262Z,8.60
2022-10-05T03:11:15.215Z,8.60
2022-10-05T03:13:42.463Z,8.50
2022-10-05T03:16:21.781Z,8.50
2022-10-05T03:18:58.623Z,8.50
2022-10-05T03:21:44.526Z,8.40
2022-10-05T03:24:26.986Z,8.40
2022-10-05T03:27:03.357Z,8.30
2022-10-05T03:29:33.580Z,8.30
2022-10-05T03:32:04.523Z,8.30
2022-10-05T03:34:38.782Z,8.30
2022-10-05T03:37:15.218Z,8.40
2022-10-05T03:39:46.998Z,8.50
2022-10-05T03:42:50.115Z,8.50
2022-10-05T03:45:23.426Z,8.50
2022-10-05T03:48:01.683Z,8.60
2022-10-05T03:50:31.156Z,8.60
2022-10-05T03:53:05.938Z,8.60
2022-10-05T03:55:33.894Z,8.60
2022-10-05T03:58:03.158Z,8.60
2022-10-05T04:00:30.279Z,8.60
2022-10-05T04:03:02.580Z,8.70
2022-10-05T04:05:30.483Z,8.70
2022-10-05T04:08:33.862Z,8.70
2022-10-05T04:11:03.663Z,8.70
2022-10-05T04:13:37.250Z,8.70
2022-10-05T04:16:14.822Z,8.70
2022-10-05T04:19:18.766Z,8.70
2022-10-05T04:22:07.839Z,8.60
2022-10-05T04:24:37.447Z,8.60
2022-10-05T04:27:10.525Z,8.50
2022-10-05T04:29:52.423Z,8.50
2022-10-05T04:32:25.542Z,8.40
2022-10-05T04:34:52.679Z,8.40
2022-10-05T04:37:21.798Z,8.30
2022-10-05T04:39:58.913Z,8.40
2022-10-05T04:42:30.994Z,8.40
2022-10-05T04:44:59.389Z,8.40
2022-10-05T04:47:30.376Z,8.30
2022-10-05T04:50:03.778Z,8.40
2022-10-05T04:52:31.230Z,8.30
2022-10-05T04:54:58.920Z,8.40
2022-10-05T04:57:47.295Z,8.40
2022-10-05T05:00:24.735Z,8.40
2022-10-05T05:03:03.234Z,8.50
2022-10-05T05:06:05.028Z,8.50
2022-10-05T05:08:35.799Z,8.50
2022-10-05T05:11:02.801Z,8.50
2022-10-05T05:13:32.878Z,8.50
2022-10-05T05:15:59.962Z,8.50
2022-10-05T05:18:46.699Z,8.50
2022-10-05T05:21:21.385Z,8.50
2022-10-05T05:23:51.630Z,8.50
2022-10-05T05:26:27.850Z,8.50
2022-10-05T05:28:55.487Z,8.40
2022-10-05T05:31:42.060Z,8.50
2022-10-05T05:34:15.281Z,8.50
2022-10-05T05:36:51.535Z,8.50
2022-10-05T05:39:23.262Z,8.50
2022-10-05T05:42:13.164Z,8.50
2022-10-05T05:44:45.148Z,8.50
2022-10-05T05:47:16.306Z,8.60
2022-10-05T05:49:55.502Z,8.60
2022-10-05T05:52:43.380Z,8.60
2022-10-05T05:55:13.489Z,8.60
2022-10-05T05:57:42.757Z,8.70
2022-10-05T06:00:13.895Z,8.70
2022-10-05T06:02:53.408Z,8.80
2022-10-05T06:05:24.966Z,8.80
2022-10-05T06:07:52.586Z,8.90
2022-10-05T06:10:19.702Z,9.00
2022-10-05T06:13:01.493Z,9.10
2022-10-05T06:15:32.629Z,9.10
2022-10-05T06:18:01.598Z,9.20
2022-10-05T06:20:30.749Z,9.30
2022-10-05T06:22:58.860Z,9.40
2022-10-05T06:25:35.624Z,9.50
2022-10-05T06:28:12.890Z,9.50
2022-10-05T06:30:55.798Z,9.70
2022-10-05T06:33:23.054Z,9.80
2022-10-05T06:35:50.252Z,9.80
2022-10-05T06:38:32.591Z,9.90
2022-10-05T06:41:16.977Z,10.10
2022-10-05T06:44:00.937Z,10.20
2022-10-05T06:46:46.174Z,10.30
2022-10-05T06:49:23.471Z,10.40
2022-10-05T06:52:05.462Z,10.50
2022-10-05T06:54:43.288Z,10.60
2022-10-05T06:57:17.292Z,10.70
2022-10-05T06:59:51.064Z,10.80
2022-10-05T07:02:22.124Z,10.90
2022-10-05T07:05:01.344Z,11.00
2022-10-05T07:07:32.740Z,11.10
2022-10-05T07:10:10.663Z,11.30
2022-10-05T07:12:45.345Z,11.40
2022-10-05T07:15:31.355Z,11.60
2022-10-05T07:18:07.627Z,11.70
2022-10-05T07:20:53.635Z,11.80
2022-10-05T07:23:33.410Z,12.00
2022-10-05T07:26:02.833Z,12.10
2022-10-05T07:28:50.867Z,12.20
2022-10-05T07:31:27.802Z,12.40
2022-10-05T07:34:08.674Z,12.50
2022-10-05T07:36:58.783Z,12.70
2022-10-05T07:39:59.152Z,12.80
2022-10-05T07:42:48.750Z,13.00
2022-10-05T07:45:39.088Z,13.10
2022-10-05T07:48:16.326Z,13.20
2022-10-05T07:50:49.173Z,13.40
2022-10-05T07:53:22.548Z,13.50
2022-10-05T07:55:53.594Z,13.60
2022-10-05T07:58:31.694Z,13.80
2022-10-05T08:01:38.454Z,14.00
2022-10-05T08:04:11.009Z,14.10
2022-10-05T08:06:40.878Z,14.30
2022-10-05T08:09:23.571Z,14.50
2022-10-05T08:11:53.202Z,14.70
2022-10-05T08:14:34.907Z,14.90
2022-10-05T08:17:02.645Z,15.00
2022-10-05T08:19:32.206Z,15.10
2022-10-05T08:22:00.567Z,15.40
2022-10-05T08:24:36.863Z,15.60
2022-10-05T08:27:05.513Z,15.70
2022-10-05T08:29:34.402Z,15.90
2022-10-05T08:32:02.547Z,16.10
2022-10-05T08:34:30.984Z,16.10
2022-10-05T08:36:58.650Z,16.30
2022-10-05T08:39:27.152Z,16.40
2022-10-05T08:42:12.919Z,16.50
2022-10-05T08:44:51.338Z,16.60
2022-10-05T08:47:24.618Z,16.70
2022-10-05T08:50:10.544Z,16.80
2022-10-05T08:52:52.880Z,17.00
2022-10-05T08:55:22.945Z,17.20
2022-10-05T08:58:08.892Z,17.30
2022-10-05T09:00:39.892Z,17.40
2022-10-05T09:03:15.895Z,17.60
2022-10-05T09:06:00.426Z,17.70
2022-10-05T09:08:46.203Z,17.90
2022-10-05T09:11:26.414Z,18.00
2022-10-05T09:14:12.229Z,18.20
2022-10-05T09:16:48.435Z,18.40
2022-10-05T09:19:34.333Z,18.40
2022-10-05T09:22:05.833Z,18.50
2022-10-05T09:24:51.857Z,18.50
2022-10-05T09:27:19.155Z,18.40
2022-10-05T09:29:52.167Z,18.40
2022-10-05T09:32:34.457Z,18.50
2022-10-05T09:35:16.439Z,18.60
2022-10-05T09:37:44.116Z,18.60
2022-10-05T09:40:20.212Z,18.70
2022-10-05T09:42:53.223Z,18.80
2022-10-05T09:45:39.050Z,18.80
2022-10-05T09:48:29.476Z,18.90
2022-10-05T09:51:00.261Z,19.00
2022-10-05T09:53:40.585Z,19.00
2022-10-05T09:56:10.580Z,19.10
2022-10-05T09:58:49.783Z,19.20
2022-10-05T10:01:32.533Z,19.20
2022-10-05T10:04:19.405Z,19.40
2022-10-05T10:06:46.440Z,19.50
2022-10-05T10:09:16.259Z,19.50
2022-10-05T10:11:49.643Z,19.60
2022-10-05T10:14:19.685Z,19.60
2022-10-05T10:17:06.781Z,19.60
2022-10-05T10:19:48.870Z,19.90
2022-10-05T10:22:31.663Z,20.00
2022-10-05T10:24:58.871Z,20.00
2022-10-05T10:27:40.886Z,20.10
2022-10-05T10:30:19.597Z,20.00
2022-10-05T10:33:05.487Z,20.00
2022-10-05T10:35:33.226Z,20.10
2022-10-05T10:38:20.090Z,20.10
2022-10-05T10:41:05.899Z,20.20
2022-10-05T10:43:43.664Z,20.20
2022-10-05T10:46:13.876Z,20.30
2022-10-05T10:48:46.699Z,20.30
2022-10-05T10:51:22.792Z,20.40
2022-10-05T10:54:03.456Z,20.40
2022-10-05T10:56:42.934Z,20.40
2022-10-05T10:59:30.851Z,20.50
2022-10-05T11:02:04.877Z,20.50
2022-10-05T11:04:34.934Z,20.50
2022-10-05T11:07:21.110Z,20.60
2022-10-05T11:10:07.000Z,20.70
2022-10-05T11:12:52.878Z,20.70
2022-10-05T11:15:26.270Z,20.80
2022-10-05T11:18:01.412Z,20.70
2022-10-05T11:20:28.590Z,20.60
2022-10-05T11:23:11.745Z,20.60
2022-10-05T11:25:57.450Z,20.60
2022-10-05T11:28:45.037Z,20.60
2022-10-05T11:31:24.424Z,20.70
2022-10-05T11:34:04.482Z,20.70
2022-10-05T11:39:57.047Z,20.90
2022-10-05T11:49:27.622Z,21.40
2022-10-05T11:52:16.617Z,21.60
2022-10-05T11:55:09.829Z,21.70
2022-10-05T11:57:38.625Z,21.60
2022-10-05T12:00:13.880Z,21.70
2022-10-05T12:02:47.172Z,21.70
2022-10-05T12:05:21.047Z,21.70
2022-10-05T12:08:00.833Z,21.80
2022-10-05T12:10:32.709Z,21.90
2022-10-05T12:13:19.410Z,21.80
2022-10-05T12:15:48.029Z,22.00
2022-10-05T12:18:30.317Z,21.90
2022-10-05T12:20:59.177Z,21.90
2022-10-05T12:23:46.469Z,21.80
2022-10-05T12:26:20.332Z,21.80
2022-10-05T12:28:48.944Z,21.80
2022-10-05T12:31:34.777Z,21.80
2022-10-05T12:34:20.472Z,21.80
2022-10-05T12:37:05.452Z,21.90
2022-10-05T12:39:38.839Z,22.00
2022-10-05T12:42:05.884Z,22.10
2022-10-05T12:44:49.734Z,22.20
2022-10-05T12:47:16.737Z,22.10
2022-10-05T12:49:53.058Z,22.20
2022-10-05T12:52:30.547Z,22.40
2022-10-05T12:55:10.409Z,22.30
2022-10-05T12:57:40.892Z,22.20
2022-10-05T13:00:12.286Z,22.20
2022-10-05T13:02:48.783Z,22.10
2022-10-05T13:05:34.492Z,22.20
2022-10-05T13:08:07.372Z,22.20
2022-10-05T13:10:34.410Z,22.10
2022-10-05T13:13:20.427Z,22.10
2022-10-05T13:15:58.332Z,22.10
2022-10-05T13:18:30.262Z,22.10
2022-10-05T13:21:04.413Z,22.10
2022-10-05T13:23:40.819Z,22.10
2022-10-05T13:26:09.047Z,22.10
2022-10-05T13:28:36.080Z,22.10
2022-10-05T13:31:06.181Z,22.10
2022-10-05T13:33:46.856Z,22.00
2022-10-05T13:36:14.132Z,22.10
2022-10-05T13:38:59.843Z,22.10
2022-10-05T13:41:29.683Z,22.10
2022-10-05T13:44:00.153Z,22.20
2022-10-05T13:46:32.128Z,22.20
2022-10-05T13:49:18.835Z,22.30
2022-10-05T13:51:51.656Z,22.30
2022-10-05T13:54:18.661Z,22.20
2022-10-05T13:56:49.191Z,22.20
2022-10-05T13:59:24.261Z,22.20
2022-10-05T14:01:58.955Z,22.20
2022-10-05T14:04:30.028Z,22.20
2022-10-05T14:06:57.116Z,22.20
2022-10-05T14:09:28.526Z,22.10
2022-10-05T14:12:04.799Z,22.00
2022-10-05T14:14:32.592Z,22.00
2022-10-05T14:17:05.771Z,22.10
2022-10-05T14:19:39.144Z,22.10
2022-10-05T14:22:18.430Z,22.10
2022-10-05T14:24:47.070Z,22.10
2022-10-05T14:27:18.790Z,22.20
2022-10-05T14:29:47.540Z,22.20
2022-10-05T14:32:15.235Z,22.10
2022-10-05T14:34:42.462Z,22.10
2022-10-05T14:37:22.830Z,22.20
2022-10-05T14:39:50.560Z,22.40
2022-10-05T14:42:21.739Z,22.40
2022-10-05T14:44:59.440Z,22.30
2022-10-05T14:47:28.159Z,22.10
2022-10-05T14:50:13.878Z,22.10
2022-10-05T14:52:42.733Z,22.00
2022-10-05T14:55:17.692Z,22.00
2022-10-05T14:57:47.881Z,21.90
2022-10-05T15:00:16.489Z,22.00
2022-10-05T15:02:58.884Z,21.90
2022-10-05T15:05:41.203Z,21.90
2022-10-05T15:08:11.347Z,21.80
2022-10-05T15:10:38.496Z,21.70
2022-10-05T15:13:21.915Z,21.70
2022-10-05T15:15:54.593Z,21.60
2022-10-05T15:18:27.245Z,21.60
2022-10-05T15:21:16.948Z,21.60
2022-10-05T15:23:47.343Z,21.60
2022-10-05T15:26:17.764Z,21.60
2022-10-05T15:28:54.345Z,21.60
2022-10-05T15:31:30.671Z,21.60
2022-10-05T15:34:01.599Z,21.70
2022-10-05T15:36:41.391Z,21.70
2022-10-05T15:39:26.995Z,21.60
2022-10-05T15:42:00.903Z,21.60
2022-10-05T15:44:35.323Z,21.60
2022-10-05T15:47:03.665Z,21.70
2022-10-05T15:49:39.537Z,21.60
2022-10-05T15:52:25.363Z,21.50
2022-10-05T15:55:10.681Z,21.30
2022-10-05T15:57:56.204Z,21.30
2022-10-05T16:00:23.364Z,21.20
2022-10-05T16:02:55.706Z,21.20
2022-10-05T16:05:42.745Z,21.20
2022-10-05T16:08:34.820Z,21.20
2022-10-05T16:11:02.239Z,21.10
2022-10-05T16:13:35.863Z,21.10
2022-10-05T16:16:15.611Z,21.00
2022-10-05T16:18:47.674Z,21.10
2022-10-05T16:21:20.893Z,21.10
2022-10-05T16:23:57.738Z,20.80
2022-10-05T16:26:33.968Z,20.50
2022-10-05T16:29:00.966Z,20.30
2022-10-05T16:31:37.427Z,19.90
2022-10-05T16:34:17.032Z,19.60
2022-10-05T16:36:44.479Z,19.40
2022-10-05T16:39:15.944Z,19.10
2022-10-05T16:41:42.997Z,19.00
2022-10-05T16:44:28.695Z,18.80
2022-10-05T16:46:59.550Z,18.60
2022-10-05T16:49:38.815Z,18.50
2022-10-05T16:52:06.984Z,18.40
2022-10-05T16:54:37.172Z,18.20
2022-10-05T16:57:23.754Z,18.10
2022-10-05T17:00:26.234Z,17.80
2022-10-05T17:02:59.097Z,17.50
2022-10-05T17:05:38.490Z,17.30
2022-10-05T17:08:08.719Z,17.10
2022-10-05T17:10:48.465Z,16.90
2022-10-05T17:13:33.839Z,16.80
2022-10-05T17:16:01.145Z,16.70
2022-10-05T17:18:50.270Z,16.50
2022-10-05T17:21:25.666Z,16.40
2022-10-05T17:23:54.045Z,16.40
2022-10-05T17:26:41.314Z,16.20
2022-10-05T17:29:14.331Z,16.00
2022-10-05T17:32:00.362Z,15.90
2022-10-05T17:34:28.408Z,15.70
2022-10-05T17:36:57.798Z,15.50
2022-10-05T17:40:02.313Z,15.50
2022-10-05T17:42:29.394Z,15.40
2022-10-05T17:44:59.706Z,15.30
2022-10-05T17:47:47.610Z,15.20
2022-10-05T17:50:33.115Z,15.30
2022-10-05T17:53:38.614Z,15.10
2022-10-05T17:56:05.737Z,15.10
2022-10-05T17:58:32.727Z,15.00
2022-10-05T18:01:00.628Z,15.00
2022-10-05T18:03:46.327Z,14.90
2022-10-05T18:06:25.559Z,14.90
2022-10-05T18:09:11.509Z,14.80
2022-10-05T18:11:39.063Z,14.80
2022-10-05T18:14:27.427Z,14.70
2022-10-05T18:16:58.383Z,14.80
2022-10-05T18:19:25.382Z,14.70
2022-10-05T18:22:03.486Z,14.60
2022-10-05T18:24:38.322Z,14.60
2022-10-05T18:27:25.498Z,14.50
2022-10-05T18:30:14.964Z,14.40
2022-10-05T18:33:00.822Z,14.40
2022-10-05T18:35:42.859Z,14.30
2022-10-05T18:38:25.108Z,14.20
2022-10-05T18:40:52.648Z,14.20
2022-10-05T18:43:29.019Z,14.00
2022-10-05T18:45:56.014Z,14.00
2022-10-05T18:48:39.077Z,13.90
2022-10-05T18:51:09.254Z,13.90
2022-10-05T18:53:36.523Z,13.80
2022-10-05T18:56:04.439Z,13.70
2022-10-05T18:58:35.774Z,13.70
2022-10-05T19:01:02.844Z,13.60
2022-10-05T19:03:51.053Z,13.60
2022-10-05T19:06:20.507Z,13.50
2022-10-05T19:09:06.427Z,13.40
2022-10-05T19:11:38.146Z,13.40
2022-10-05T19:14:11.205Z,13.40
2022-10-05T19:16:46.101Z,13.30
2022-10-05T19:19:29.443Z,13.20
2022-10-05T19:21:59.557Z,13.20
2022-10-05T19:24:42.438Z,13.10
2022-10-05T19:27:15.243Z,13.10
2022-10-05T19:30:01.054Z,13.00
2022-10-05T19:32:31.194Z,12.90
2022-10-05T19:35:01.180Z,12.90
2022-10-05T19:37:34.340Z,12.90
2022-10-05T19:40:10.682Z,12.90
2022-10-05T19:42:56.456Z,12.70
2022-10-05T19:45:26.896Z,12.70
2022-10-05T19:48:03.090Z,12.70
2022-10-05T19:50:30.750Z,12.70
2022-10-05T19:53:19.635Z,12.70
2022-10-05T19:55:47.079Z,12.70
2022-10-05T19:58:24.744Z,12.70
2022-10-05T20:00:52.950Z,12.70
2022-10-05T20:03:26.415Z,12.70
2022-10-05T20:05:54.566Z,12.60
2022-10-05T20:08:21.712Z,12.70
2022-10-05T20:11:07.656Z,12.70
2022-10-05T20:13:35.769Z,12.70
2022-10-05T20:16:44.820Z,12.70
2022-10-05T20:19:49.385Z,12.70
2022-10-05T20:22:34.913Z,12.80
2022-10-05T20:25:03.723Z,12.80
2022-10-05T20:27:39.791Z,12.80
2022-10-05T20:30:07.191Z,12.80
2022-10-05T20:32:34.206Z,12.90
2022-10-05T20:35:01.229Z,12.90
2022-10-05T20:37:28.227Z,12.90
2022-10-05T20:39:55.234Z,13.00
2022-10-05T20:42:23.756Z,13.00
2022-10-05T20:44:55.777Z,13.00
2022-10-05T20:47:23.941Z,13.00
2022-10-05T20:49:53.083Z,13.00
2022-10-05T20:52:20.175Z,13.00
2022-10-05T20:54:47.204Z,13.00
2022-10-05T20:57:14.230Z,13.00
2022-10-05T20:59:41.209Z,13.00
2022-10-05T21:02:08.258Z,12.90
2022-10-05T21:04:39.998Z,13.00
2022-10-05T21:07:07.730Z,13.00
2022-10-05T21:09:37.876Z,13.00
2022-10-05T21:12:04.924Z,13.10
2022-10-05T21:14:34.192Z,13.00
2022-10-05T21:17:02.024Z,13.00
2022-10-05T21:19:29.503Z,13.00
2022-10-05T21:21:59.026Z,13.00
2022-10-05T21:24:26.213Z,13.00
2022-10-05T21:26:56.698Z,12.90
2022-10-05T21:29:23.739Z,12.90
2022-10-05T21:31:51.074Z,12.90
2022-10-05T21:34:18.233Z,13.00
2022-10-05T21:36:45.239Z,13.00
2022-10-05T21:39:12.238Z,13.00
2022-10-05T21:41:39.297Z,12.90
2022-10-05T21:44:06.675Z,12.90
2022-10-05T21:46:34.919Z,12.90
2022-10-05T21:49:01.930Z,12.90
2022-10-05T21:51:28.947Z,12.80
2022-10-05T21:54:01.603Z,12.80
2022-10-05T21:56:32.880Z,12.90
2022-10-05T21:59:00.475Z,12.90
2022-10-05T22:01:28.971Z,12.90
2022-10-05T22:03:56.878Z,13.00
2022-10-05T22:06:24.064Z,12.90
2022-10-05T22:08:51.079Z,12.90
2022-10-05T22:11:18.158Z,12.90
2022-10-05T22:13:46.074Z,12.90
2022-10-05T22:16:13.580Z,12.90
2022-10-05T22:18:40.643Z,12.80
2022-10-05T22:21:07.949Z,12.70
2022-10-05T22:23:35.924Z,12.70
2022-10-05T22:26:02.934Z,12.60
2022-10-05T22:28:30.813Z,12.60
2022-10-05T22:30:58.929Z,12.60
2022-10-05T22:33:25.942Z,12.50
2022-10-05T22:35:52.962Z,12.50
2022-10-05T22:38:19.967Z,12.40
2022-10-05T22:40:46.993Z,12.40
2022-10-05T22:43:13.999Z,12.40
2022-10-05T22:45:41.169Z,12.40
2022-10-05T22:48:08.246Z,12.50
2022-10-05T22:50:35.253Z,12.50
2022-10-05T22:53:02.251Z,12.50
2022-10-05T22:55:29.610Z,12.60
2022-10-05T22:57:56.603Z,12.60
2022-10-05T23:00:35.148Z,12.60
2022-10-05T23:03:10.875Z,12.60
2022-10-05T23:05:37.933Z,12.50
2022-10-05T23:08:05.029Z,12.50
2022-10-05T23:10:32.240Z,12.50
2022-10-05T23:13:01.071Z,12.60
2022-10-05T23:15:28.323Z,12.50
2022-10-05T23:17:56.167Z,12.50
2022-10-05T23:20:24.499Z,12.40
2022-10-05T23:22:51.550Z,12.40
2022-10-05T23:25:18.605Z,12.50
2022-10-05T23:27:45.662Z,12.50
2022-10-05T23:30:12.894Z,12.50
2022-10-05T23:32:40.320Z,12.50
2022-10-05T23:35:08.155Z,12.40
2022-10-05T23:37:42.336Z,12.40
2022-10-05T23:40:10.381Z,12.30
2022-10-05T23:42:37.662Z,12.30
2022-10-05T23:45:05.153Z,12.20
2022-10-05T23:47:32.203Z,12.10
2022-10-05T23:49:59.209Z,12.10
2022-10-05T23:52:26.201Z,12.00
2022-10-05T23:54:53.235Z,11.90
2022-10-05T23:57:20.251Z,11.90
2022-10-05T23:59:50.135Z,11.90
